createdAt,value
2022-09-17T00:01:05.581Z,11.33
2022-09-17T00:03:34.373Z,11.29
2022-09-17T00:06:03.606Z,11.27
2022-09-17T00:08:30.579Z,11.26
2022-09-17T00:10:57.155Z,11.28
2022-09-17T00:13:23.873Z,11.26
2022-09-17T00:15:52.452Z,11.24
2022-09-17T00:18:19.252Z,11.23
2022-09-17T00:20:47.318Z,11.28
2022-09-17T00:23:15.219Z,11.28
2022-09-17T00:25:44.006Z,11.26
2022-09-17T00:28:11.924Z,11.27
2022-09-17T00:30:43.153Z,11.27
2022-09-17T00:33:13.014Z,11.28
2022-09-17T00:35:39.745Z,11.41
2022-09-17T00:38:09.483Z,11.34
2022-09-17T00:40:36.098Z,11.34
2022-09-17T00:43:03.124Z,11.35
2022-09-17T00:45:32.091Z,11.37
2022-09-17T00:48:05.303Z,11.34
2022-09-17T00:50:36.650Z,11.34
2022-09-17T00:53:13.880Z,11.36
2022-09-17T00:55:45.247Z,11.35
2022-09-17T00:58:15.396Z,11.36
2022-09-17T01:00:43.362Z,11.40
2022-09-17T01:03:09.847Z,11.40
2022-09-17T01:05:45.852Z,11.34
2022-09-17T01:08:25.862Z,11.30
2022-09-17T01:11:01.330Z,11.34
2022-09-17T01:14:03.163Z,11.31
2022-09-17T01:16:35.907Z,11.37
2022-09-17T01:19:51.328Z,11.34
2022-09-17T01:22:47.125Z,11.41
2022-09-17T01:25:25.110Z,11.42
2022-09-17T01:28:13.724Z,11.47
2022-09-17T01:30:55.768Z,11.46
2022-09-17T01:33:44.262Z,11.45
2022-09-17T01:36:19.657Z,11.48
2022-09-17T01:39:03.506Z,11.49
2022-09-17T01:41:41.944Z,11.53
2022-09-17T01:44:22.413Z,11.50
2022-09-17T01:47:01.588Z,11.51
2022-09-17T01:49:31.737Z,11.52
2022-09-17T01:52:00.685Z,11.53
2022-09-17T01:54:37.130Z,11.55
2022-09-17T01:57:16.392Z,11.51
2022-09-17T01:59:49.027Z,11.54
2022-09-17T02:02:30.864Z,11.51
2022-09-17T02:05:05.364Z,11.54
2022-09-17T02:07:37.307Z,11.54
2022-09-17T02:10:18.364Z,11.56
2022-09-17T02:12:59.159Z,11.59
2022-09-17T02:15:35.022Z,11.57
2022-09-17T02:18:17.970Z,11.55
2022-09-17T02:20:54.857Z,11.57
2022-09-17T02:23:29.698Z,11.58
2022-09-17T02:26:04.462Z,11.56
2022-09-17T02:28:39.214Z,11.55
2022-09-17T02:31:06.058Z,11.59
2022-09-17T02:33:35.167Z,11.57
2022-09-17T02:36:02.527Z,11.56
2022-09-17T02:38:30.938Z,11.55
2022-09-17T02:41:26.319Z,11.55
2022-09-17T02:44:24.862Z,11.53
2022-09-17T02:47:09.941Z,11.53
2022-09-17T02:50:14.861Z,11.53
2022-09-17T02:52:59.130Z,11.53
2022-09-17T02:55:34.853Z,11.53
2022-09-17T02:58:25.743Z,11.50
2022-09-17T03:00:52.949Z,11.52
2022-09-17T03:03:21.909Z,11.52
2022-09-17T03:05:48.657Z,11.48
2022-09-17T03:08:20.153Z,11.52
2022-09-17T03:10:49.243Z,11.45
2022-09-17T03:13:16.298Z,11.47
2022-09-17T03:15:43.289Z,11.49
2022-09-17T03:18:09.931Z,11.48
2022-09-17T03:20:36.744Z,11.49
2022-09-17T03:23:03.365Z,11.47
2022-09-17T03:25:29.892Z,11.46
2022-09-17T03:27:56.365Z,11.43
2022-09-17T03:30:22.840Z,11.47
2022-09-17T03:32:49.340Z,11.46
2022-09-17T03:35:15.842Z,11.48
2022-09-17T03:37:43.114Z,11.51
2022-09-17T03:40:10.389Z,11.54
2022-09-17T03:42:36.883Z,11.50
2022-09-17T03:45:03.496Z,11.48
2022-09-17T03:47:30.739Z,11.43
2022-09-17T03:49:57.787Z,11.47
2022-09-17T03:52:24.286Z,11.41
2022-09-17T03:54:50.800Z,11.40
2022-09-17T03:57:17.254Z,11.35
2022-09-17T03:59:43.791Z,11.38
2022-09-17T04:02:10.303Z,11.34
2022-09-17T04:04:36.913Z,11.31
2022-09-17T04:07:05.722Z,11.34
2022-09-17T04:09:33.448Z,11.33
2022-09-17T04:12:02.034Z,11.37
2022-09-17T04:14:28.553Z,11.35
2022-09-17T04:16:55.258Z,11.34
2022-09-17T04:19:21.735Z,11.31
2022-09-17T04:21:48.226Z,11.27
2022-09-17T04:24:14.674Z,11.27
2022-09-17T04:26:41.181Z,11.32
2022-09-17T04:29:07.874Z,11.33
2022-09-17T04:31:34.456Z,11.31
2022-09-17T04:34:01.073Z,11.33
2022-09-17T04:36:27.604Z,11.28
2022-09-17T04:38:54.209Z,11.30
2022-09-17T04:41:20.751Z,11.26
2022-09-17T04:43:50.294Z,11.25
2022-09-17T04:46:16.873Z,11.27
2022-09-17T04:48:43.645Z,11.24
2022-09-17T04:51:10.267Z,11.20
2022-09-17T04:53:38.501Z,11.22
2022-09-17T04:56:05.333Z,11.24
2022-09-17T04:58:33.004Z,11.28
2022-09-17T05:00:59.638Z,11.24
2022-09-17T05:03:26.522Z,11.20
2022-09-17T05:05:53.038Z,11.22
2022-09-17T05:08:19.503Z,11.25
2022-09-17T05:10:46.015Z,11.25
2022-09-17T05:13:12.486Z,11.24
2022-09-17T05:15:39.045Z,11.21
2022-09-17T05:18:05.613Z,11.24
2022-09-17T05:20:32.067Z,11.23
2022-09-17T05:22:58.553Z,11.24
2022-09-17T05:25:25.102Z,11.23
2022-09-17T05:27:53.424Z,11.23
2022-09-17T05:30:20.518Z,11.23
2022-09-17T05:32:47.300Z,11.24
2022-09-17T05:35:14.194Z,11.24
2022-09-17T05:37:40.761Z,11.27
2022-09-17T05:40:08.881Z,11.27
2022-09-17T05:42:35.565Z,11.21
2022-09-17T05:45:02.139Z,11.20
2022-09-17T05:47:28.710Z,11.21
2022-09-17T05:49:55.168Z,11.27
2022-09-17T05:52:21.624Z,11.30
2022-09-17T05:54:48.654Z,11.24
2022-09-17T05:57:15.987Z,11.25
2022-09-17T05:59:42.526Z,11.23
2022-09-17T06:02:15.314Z,11.27
2022-09-17T06:04:41.787Z,11.27
2022-09-17T06:07:09.279Z,11.23
2022-09-17T06:09:40.557Z,11.24
2022-09-17T06:12:07.385Z,11.23
2022-09-17T06:14:33.837Z,11.21
2022-09-17T06:17:00.431Z,11.22
2022-09-17T06:19:27.672Z,11.24
2022-09-17T06:21:54.256Z,11.24
2022-09-17T06:24:20.697Z,11.17
2022-09-17T06:26:47.200Z,11.13
2022-09-17T06:29:15.192Z,11.17
2022-09-17T06:31:44.812Z,11.10
2022-09-17T06:34:11.797Z,11.08
2022-09-17T06:36:38.360Z,11.05
2022-09-17T06:39:04.869Z,11.03
2022-09-17T06:41:31.507Z,11.00
2022-09-17T06:43:58.687Z,11.00
2022-09-17T06:46:25.528Z,10.99
2022-09-17T06:48:52.175Z,11.00
2022-09-17T06:51:18.673Z,11.06
2022-09-17T06:53:45.163Z,11.01
2022-09-17T06:56:11.625Z,10.99
2022-09-17T06:58:38.509Z,10.99
2022-09-17T07:01:05.893Z,11.02
2022-09-17T07:03:33.395Z,11.01
2022-09-17T07:06:00.336Z,11.11
2022-09-17T07:08:26.980Z,11.12
2022-09-17T07:10:57.384Z,11.08
2022-09-17T07:13:24.814Z,11.13
2022-09-17T07:15:59.374Z,11.19
2022-09-17T07:18:26.953Z,11.22
2022-09-17T07:20:57.699Z,11.27
2022-09-17T07:23:26.953Z,11.26
2022-09-17T07:26:01.775Z,11.29
2022-09-17T07:28:29.125Z,11.39
2022-09-17T07:30:56.522Z,11.37
2022-09-17T07:33:25.653Z,11.36
2022-09-17T07:35:56.732Z,11.28
2022-09-17T07:38:24.407Z,11.34
2022-09-17T07:41:09.667Z,11.38
2022-09-17T07:43:36.349Z,11.59
2022-09-17T07:46:05.656Z,11.75
2022-09-17T07:48:32.440Z,11.77
2022-09-17T07:50:59.047Z,11.74
2022-09-17T07:53:29.443Z,11.84
2022-09-17T07:55:58.532Z,11.82
2022-09-17T07:58:30.641Z,11.86
2022-09-17T08:01:06.956Z,11.89
2022-09-17T08:03:33.715Z,11.97
2022-09-17T08:06:05.495Z,12.21
2022-09-17T08:08:33.730Z,12.16
2022-09-17T08:11:10.746Z,12.05
2022-09-17T08:13:37.915Z,11.95
2022-09-17T08:16:07.225Z,11.95
2022-09-17T08:18:34.345Z,11.95
2022-09-17T08:21:03.040Z,12.00
2022-09-17T08:23:30.925Z,12.02
2022-09-17T08:25:59.868Z,12.09
2022-09-17T08:28:31.399Z,12.22
2022-09-17T08:31:03.404Z,12.48
2022-09-17T08:33:34.800Z,12.64
2022-09-17T08:36:01.562Z,12.95
2022-09-17T08:38:29.331Z,12.74
2022-09-17T08:41:11.336Z,12.67
2022-09-17T08:44:06.424Z,12.71
2022-09-17T08:46:46.993Z,12.89
2022-09-17T08:49:18.376Z,13.14
2022-09-17T08:51:54.369Z,13.28
2022-09-17T08:54:45.012Z,13.25
2022-09-17T08:57:11.526Z,13.32
2022-09-17T08:59:49.508Z,13.64
2022-09-17T09:02:42.116Z,13.87
2022-09-17T09:05:16.930Z,13.47
2022-09-17T09:07:50.040Z,13.35
2022-09-17T09:10:25.388Z,13.61
2022-09-17T09:12:53.457Z,13.39
2022-09-17T09:16:03.405Z,13.49
2022-09-17T09:18:35.607Z,13.67
2022-09-17T09:21:13.956Z,13.71
2022-09-17T09:23:56.818Z,13.42
2022-09-17T09:26:32.412Z,13.61
2022-09-17T09:29:10.019Z,13.84
2022-09-17T09:32:16.247Z,13.87
2022-09-17T09:34:44.286Z,13.59
2022-09-17T09:37:21.776Z,13.51
2022-09-17T09:39:51.268Z,13.68
2022-09-17T09:42:30.892Z,13.86
2022-09-17T09:45:05.536Z,14.04
2022-09-17T09:47:50.206Z,14.26
2022-09-17T09:51:05.163Z,14.40
2022-09-17T09:53:37.740Z,14.61
2022-09-17T09:56:34.887Z,14.57
2022-09-17T09:59:01.410Z,14.61
2022-09-17T10:01:30.294Z,14.30
2022-09-17T10:03:58.839Z,14.14
2022-09-17T10:06:29.392Z,14.12
2022-09-17T10:08:55.888Z,14.27
2022-09-17T10:11:27.716Z,14.57
2022-09-17T10:14:15.246Z,14.85
2022-09-17T10:16:41.801Z,14.86
2022-09-17T10:19:08.228Z,14.87
2022-09-17T10:21:40.318Z,14.84
2022-09-17T10:24:27.457Z,14.81
2022-09-17T10:27:12.264Z,14.85
2022-09-17T10:29:43.225Z,15.04
2022-09-17T10:32:16.085Z,14.91
2022-09-17T10:34:57.610Z,14.82
2022-09-17T10:37:43.849Z,15.04
2022-09-17T10:40:36.467Z,14.99
2022-09-17T10:43:16.692Z,14.42
2022-09-17T10:45:46.364Z,14.10
2022-09-17T10:48:20.441Z,13.80
2022-09-17T10:50:51.979Z,13.80
2022-09-17T10:53:20.751Z,14.20
2022-09-17T10:55:56.067Z,13.92
2022-09-17T10:58:48.776Z,13.74
2022-09-17T11:01:24.378Z,13.61
2022-09-17T11:03:57.002Z,13.77
2022-09-17T11:07:02.088Z,13.69
2022-09-17T11:09:37.368Z,13.66
2022-09-17T11:12:27.553Z,13.69
2022-09-17T11:15:27.311Z,13.65
2022-09-17T11:18:08.962Z,13.72
2022-09-17T11:20:55.948Z,13.94
2022-09-17T11:23:42.644Z,14.54
2022-09-17T11:26:48.942Z,14.52
2022-09-17T11:29:35.416Z,14.39
2022-09-17T11:32:36.843Z,14.74
2022-09-17T11:35:10.231Z,14.84
2022-09-17T11:38:08.857Z,14.24
2022-09-17T11:40:41.425Z,14.13
2022-09-17T11:43:23.025Z,14.47
2022-09-17T11:46:11.021Z,14.69
2022-09-17T11:48:53.021Z,14.79
2022-09-17T11:51:39.741Z,14.82
2022-09-17T11:54:38.810Z,14.79
2022-09-17T11:57:17.217Z,14.89
2022-09-17T11:59:47.009Z,15.12
2022-09-17T12:02:31.047Z,15.44
2022-09-17T12:05:26.223Z,15.13
2022-09-17T12:08:10.280Z,14.93
2022-09-17T12:10:53.531Z,14.70
2022-09-17T12:13:41.662Z,14.53
2022-09-17T12:16:22.857Z,14.51
2022-09-17T12:19:30.796Z,14.61
2022-09-17T12:22:02.089Z,14.62
2022-09-17T12:24:30.910Z,14.89
2022-09-17T12:27:06.105Z,14.86
2022-09-17T12:30:09.757Z,14.96
2022-09-17T12:33:11.883Z,15.32
2022-09-17T12:36:04.023Z,15.29
2022-09-17T12:38:47.759Z,14.99
2022-09-17T12:41:21.087Z,14.54
2022-09-17T12:44:05.495Z,14.41
2022-09-17T12:46:56.252Z,14.20
2022-09-17T12:49:41.659Z,14.23
2022-09-17T12:52:33.622Z,14.32
2022-09-17T12:55:20.098Z,14.41
2022-09-17T12:58:29.034Z,14.38
2022-09-17T13:01:07.080Z,14.38
2022-09-17T13:03:42.528Z,14.38
2022-09-17T13:06:26.194Z,14.38
2022-09-17T13:09:10.850Z,14.41
2022-09-17T13:12:01.713Z,14.72
2022-09-17T13:14:48.468Z,15.02
2022-09-17T13:17:32.984Z,14.82
2022-09-17T13:19:59.643Z,14.60
2022-09-17T13:22:42.933Z,14.43
2022-09-17T13:25:12.476Z,14.26
2022-09-17T13:27:39.561Z,14.16
2022-09-17T13:30:08.713Z,14.06
2022-09-17T13:32:35.372Z,13.98
2022-09-17T13:35:24.913Z,13.93
2022-09-17T13:37:59.400Z,13.88
2022-09-17T13:40:35.168Z,13.85
2022-09-17T13:43:06.150Z,13.88
2022-09-17T13:45:33.866Z,13.93
2022-09-17T13:48:13.095Z,13.88
2022-09-17T13:50:41.979Z,13.92
2022-09-17T13:53:14.370Z,13.92
2022-09-17T13:55:52.275Z,13.86
2022-09-17T13:58:18.788Z,13.81
2022-09-17T14:01:27.114Z,12.86
2022-09-17T14:03:54.521Z,12.34
2022-09-17T14:06:24.681Z,12.07
2022-09-17T14:08:55.460Z,12.02
2022-09-17T14:11:28.627Z,12.04
2022-09-17T14:14:04.247Z,11.97
2022-09-17T14:16:35.454Z,11.94
2022-09-17T14:19:22.046Z,11.91
2022-09-17T14:21:57.005Z,12.11
2022-09-17T14:24:32.903Z,12.33
2022-09-17T14:27:14.326Z,12.39
2022-09-17T14:29:47.020Z,12.30
2022-09-17T14:32:20.834Z,12.34
2022-09-17T14:34:49.167Z,12.48
2022-09-17T14:37:19.837Z,12.55
2022-09-17T14:39:47.599Z,12.65
2022-09-17T14:42:20.919Z,12.54
2022-09-17T14:44:59.346Z,12.54
2022-09-17T14:47:27.002Z,12.58
2022-09-17T14:49:54.298Z,12.55
2022-09-17T14:52:25.378Z,12.47
2022-09-17T14:55:11.779Z,12.48
2022-09-17T14:57:38.541Z,12.49
2022-09-17T15:00:10.881Z,12.43
2022-09-17T15:02:41.556Z,12.38
2022-09-17T15:05:25.980Z,12.09
2022-09-17T15:08:05.674Z,11.54
2022-09-17T15:10:32.716Z,11.29
2022-09-17T15:13:07.038Z,11.11
2022-09-17T15:15:35.147Z,10.99
2022-09-17T15:18:01.632Z,10.91
2022-09-17T15:20:31.367Z,10.84
2022-09-17T15:23:13.210Z,10.73
2022-09-17T15:25:42.175Z,10.83
2022-09-17T15:28:34.109Z,10.85
2022-09-17T15:31:00.983Z,10.90
2022-09-17T15:33:28.855Z,10.90
2022-09-17T15:36:09.833Z,10.97
2022-09-17T15:38:39.075Z,10.96
2022-09-17T15:41:34.549Z,10.94
2022-09-17T15:44:33.001Z,10.87
2022-09-17T15:47:39.595Z,10.97
2022-09-17T15:50:26.823Z,10.95
2022-09-17T15:53:08.552Z,10.97
2022-09-17T15:55:41.093Z,10.93
2022-09-17T15:58:34.450Z,10.93
2022-09-17T16:01:16.453Z,10.90
2022-09-17T16:03:45.724Z,10.91
2022-09-17T16:06:18.282Z,11.02
2022-09-17T16:08:55.859Z,10.93
2022-09-17T16:11:24.999Z,10.90
2022-09-17T16:13:53.503Z,10.82
2022-09-17T16:16:26.646Z,10.84
2022-09-17T16:18:53.178Z,10.89
2022-09-17T16:21:20.232Z,10.87
2022-09-17T16:24:02.009Z,10.86
2022-09-17T16:26:31.517Z,10.92
2022-09-17T16:29:07.132Z,10.79
2022-09-17T16:31:34.271Z,10.75
2022-09-17T16:34:00.992Z,10.74
2022-09-17T16:36:31.043Z,10.60
2022-09-17T16:38:58.510Z,10.60
2022-09-17T16:41:25.079Z,10.66
2022-09-17T16:43:51.514Z,10.68
2022-09-17T16:46:18.028Z,10.58
2022-09-17T16:48:46.354Z,10.57
2022-09-17T16:51:14.039Z,10.53
2022-09-17T16:53:40.913Z,10.55
2022-09-17T16:56:08.940Z,10.43
2022-09-17T16:58:35.850Z,10.42
2022-09-17T17:01:11.941Z,10.42
2022-09-17T17:03:38.944Z,10.39
2022-09-17T17:06:05.830Z,10.40
2022-09-17T17:08:33.142Z,10.46
2022-09-17T17:10:59.905Z,10.42
2022-09-17T17:13:27.814Z,10.42
2022-09-17T17:15:54.859Z,10.41
2022-09-17T17:18:21.867Z,10.45
2022-09-17T17:20:48.933Z,10.40
2022-09-17T17:23:19.649Z,10.40
2022-09-17T17:25:46.757Z,10.41
2022-09-17T17:28:14.996Z,10.40
2022-09-17T17:30:41.425Z,10.39
2022-09-17T17:33:07.966Z,10.39
2022-09-17T17:35:38.300Z,10.36
2022-09-17T17:38:04.961Z,10.44
2022-09-17T17:40:31.568Z,10.44
2022-09-17T17:42:58.146Z,10.39
2022-09-17T17:45:24.669Z,10.41
2022-09-17T17:47:52.205Z,10.40
2022-09-17T17:50:18.841Z,10.39
2022-09-17T17:52:48.071Z,10.33
2022-09-17T17:55:18.308Z,10.32
2022-09-17T17:57:44.814Z,10.39
2022-09-17T18:00:14.600Z,10.33
2022-09-17T18:02:41.146Z,10.33
2022-09-17T18:05:08.014Z,10.31
2022-09-17T18:07:34.571Z,10.29
2022-09-17T18:10:01.128Z,10.32
2022-09-17T18:12:27.594Z,10.32
2022-09-17T18:14:54.289Z,10.27
2022-09-17T18:17:20.858Z,10.29
2022-09-17T18:19:47.400Z,10.29
2022-09-17T18:22:14.155Z,10.23
2022-09-17T18:24:40.710Z,10.20
2022-09-17T18:27:07.205Z,10.21
2022-09-17T18:29:33.722Z,10.20
2022-09-17T18:32:00.233Z,10.20
2022-09-17T18:34:26.845Z,10.24
2022-09-17T18:36:53.331Z,10.23
2022-09-17T18:39:57.115Z,10.21
2022-09-17T18:42:08.011Z,10.20
2022-09-17T18:44:34.685Z,10.21
2022-09-17T18:47:01.511Z,10.28
2022-09-17T18:49:28.102Z,10.27
2022-09-17T18:51:54.549Z,10.22
2022-09-17T18:54:21.046Z,10.25
2022-09-17T18:56:47.501Z,10.24
2022-09-17T18:59:14.071Z,10.20
2022-09-17T19:01:40.652Z,10.22
2022-09-17T19:04:07.753Z,10.12
2022-09-17T19:06:34.887Z,10.16
2022-09-17T19:09:02.493Z,10.20
2022-09-17T19:11:29.114Z,10.21
2022-09-17T19:13:56.166Z,10.22
2022-09-17T19:16:22.843Z,10.19
2022-09-17T19:18:49.538Z,10.19
2022-09-17T19:21:21.524Z,10.12
2022-09-17T19:23:48.819Z,10.18
2022-09-17T19:26:20.788Z,10.16
2022-09-17T19:28:47.440Z,10.20
2022-09-17T19:31:16.778Z,10.16
2022-09-17T19:33:43.835Z,10.10
2022-09-17T19:36:12.937Z,10.14
2022-09-17T19:38:39.586Z,10.16
2022-09-17T19:41:09.662Z,10.18
2022-09-17T19:43:39.652Z,10.20
2022-09-17T19:46:10.224Z,10.19
2022-09-17T19:48:36.789Z,10.18
2022-09-17T19:51:06.333Z,10.19
2022-09-17T19:53:32.881Z,10.23
2022-09-17T19:55:59.362Z,10.22
2022-09-17T19:58:25.906Z,10.25
2022-09-17T20:00:59.069Z,10.23
2022-09-17T20:03:26.037Z,10.19
2022-09-17T20:06:03.169Z,10.14
2022-09-17T20:08:29.979Z,10.12
2022-09-17T20:10:56.693Z,10.13
2022-09-17T20:13:25.417Z,10.17
2022-09-17T20:15:51.946Z,10.15
2022-09-17T20:18:22.672Z,10.14
2022-09-17T20:20:50.045Z,10.16
2022-09-17T20:23:16.628Z,10.20
2022-09-17T20:25:45.729Z,10.20
2022-09-17T20:28:12.239Z,10.21
2022-09-17T20:30:38.685Z,10.24
2022-09-17T20:33:05.142Z,10.21
2022-09-17T20:35:31.807Z,10.16
2022-09-17T20:40:44.906Z,10.16
2022-09-17T20:43:11.387Z,10.12
2022-09-17T20:45:37.861Z,10.10
2022-09-17T20:48:04.387Z,10.09
2022-09-17T20:50:30.881Z,10.05
2022-09-17T20:52:57.538Z,10.06
2022-09-17T20:55:24.049Z,10.11
2022-09-17T20:57:53.560Z,10.08
2022-09-17T21:00:21.276Z,10.06
2022-09-17T21:02:54.113Z,10.05
2022-09-17T21:05:20.584Z,10.07
2022-09-17T21:07:47.030Z,10.06
2022-09-17T21:10:13.684Z,10.06
2022-09-17T21:12:40.184Z,10.05
2022-09-17T21:15:07.069Z,10.04
2022-09-17T21:17:34.551Z,10.13
2022-09-17T21:20:01.263Z,10.06
2022-09-17T21:22:31.196Z,10.00
2022-09-17T21:24:59.429Z,10.02
2022-09-17T21:27:25.870Z,10.04
2022-09-17T21:29:52.405Z,10.06
2022-09-17T21:32:18.840Z,10.05
2022-09-17T21:34:45.298Z,10.09
2022-09-17T21:37:11.755Z,10.13
2022-09-17T21:39:38.934Z,10.09
2022-09-17T21:42:05.498Z,10.12
2022-09-17T21:44:31.930Z,10.13
2022-09-17T21:46:58.548Z,10.14
2022-09-17T21:49:25.285Z,10.13
2022-09-17T21:51:51.925Z,10.13
2022-09-17T21:54:19.020Z,10.18
2022-09-17T21:56:46.824Z,10.18
2022-09-17T21:59:14.739Z,10.18
2022-09-17T22:01:46.307Z,10.19
2022-09-17T22:04:17.254Z,10.16
2022-09-17T22:06:44.788Z,10.16
2022-09-17T22:09:24.340Z,10.20
2022-09-17T22:11:52.262Z,10.24
2022-09-17T22:14:20.785Z,10.22
2022-09-17T22:16:53.129Z,10.23
2022-09-17T22:19:21.494Z,10.20
2022-09-17T22:21:53.735Z,10.16
2022-09-17T22:24:21.553Z,10.17
2022-09-17T22:26:55.947Z,10.19
2022-09-17T22:29:24.377Z,10.18
2022-09-17T22:31:51.026Z,10.15
2022-09-17T22:34:20.756Z,10.10
2022-09-17T22:36:47.446Z,10.07
2022-09-17T22:39:14.004Z,10.10
2022-09-17T22:41:45.168Z,10.10
2022-09-17T22:44:14.249Z,10.12
2022-09-17T22:46:46.389Z,10.11
2022-09-17T22:49:13.568Z,10.11
2022-09-17T22:51:41.258Z,10.09
2022-09-17T22:54:11.312Z,10.05
2022-09-17T22:56:37.852Z,10.02
2022-09-17T22:59:04.808Z,9.97
2022-09-17T23:01:33.952Z,9.98
2022-09-17T23:04:01.304Z,9.94
2022-09-17T23:06:31.553Z,9.89
2022-09-17T23:08:59.305Z,9.88
2022-09-17T23:11:31.604Z,9.90
2022-09-17T23:14:02.201Z,9.90
2022-09-17T23:16:33.673Z,9.90
2022-09-17T23:19:00.205Z,9.90
2022-09-17T23:21:26.755Z,9.89
2022-09-17T23:23:53.252Z,9.91
2022-09-17T23:26:22.908Z,9.94
2022-09-17T23:28:50.631Z,9.94
2022-09-17T23:31:18.493Z,9.97
2022-09-17T23:33:46.025Z,9.98
2022-09-17T23:36:15.474Z,9.97
2022-09-17T23:38:43.390Z,9.93
2022-09-17T23:41:21.711Z,9.99
2022-09-17T23:44:12.315Z,10.00
2022-09-17T23:46:41.746Z,10.00
2022-09-17T23:49:10.516Z,9.96
2022-09-17T23:51:37.092Z,10.00
2022-09-17T23:54:06.868Z,10.01
2022-09-17T23:56:34.123Z,9.99
2022-09-17T23:59:01.656Z,10.02
